Forside
METAR-TAF:

METAR-TAF

Lufthavne :

Yao, Japan

Breddekreds: 34-36N, længdekreds: 135-36E, højde: 10 m

Aktuelle vejr

Denne rapport blev lavet for 9 timer og 6 minutter siden, kl. 10:00 UTC
Vind 4 kt fra nord, varierende mellem nord og nordøst
Temperatur 8°C
Fugtighed 61%
Tryk 1028 hPa
Sigt 10 km eller mere
ingen skyer under 1500m og ingen cumulonimbus

METAR: RJOY 151000Z 01004KT 350V050 CAVOK 08/01 Q1028

Tid: 04:06 (19:06 UTC)


TAF: fraværende

Vejrobservationer og prognoser fra mere end 4000 lufthavne (METAR og TAF).

De gule og røde prikker repræsenterer de meteorologiske stationer.

Flyt musen over at se navnet på stationen.

Så klik over at se vejr observationer og prognoser.

At skifte det kort: Klik på de grønne knapper med et sort kors for at zoome ind; på den grønne knap med en bindestreg for at zoome ud; eller på de grønne pile for tilstødende kort.


METAR-TAF: